createdAt,value
2019-05-23T00:00:06.185Z,4.80
2019-05-23T00:01:06.167Z,4.60
2019-05-23T00:02:06.142Z,4.90
2019-05-23T00:03:06.120Z,4.60
2019-05-23T00:04:06.101Z,4.90
2019-05-23T00:05:06.131Z,4.80
2019-05-23T00:06:06.078Z,4.80
2019-05-23T00:07:06.067Z,4.20
2019-05-23T00:08:06.064Z,4.80
2019-05-23T00:09:06.055Z,4.50
2019-05-23T00:10:06.042Z,4.50
2019-05-23T00:11:06.057Z,4.50
2019-05-23T00:12:06.023Z,5.00
2019-05-23T00:13:06.010Z,4.70
2019-05-23T00:14:06.015Z,5.30
2019-05-23T00:15:05.986Z,4.80
2019-05-23T00:16:06.002Z,4.50
2019-05-23T00:17:05.986Z,4.80
2019-05-23T00:18:06.067Z,4.70
2019-05-23T00:19:05.940Z,4.70
2019-05-23T00:20:05.937Z,4.90
2019-05-23T00:21:05.961Z,4.40
2019-05-23T00:22:05.907Z,4.50
2019-05-23T00:23:05.897Z,4.50
2019-05-23T00:24:05.885Z,4.70
2019-05-23T00:25:05.882Z,4.60
2019-05-23T00:26:05.895Z,4.70
2019-05-23T00:27:05.857Z,4.40
2019-05-23T00:28:05.847Z,4.40
2019-05-23T00:29:09.906Z,4.40
2019-05-23T00:30:05.820Z,4.50
2019-05-23T00:31:05.844Z,4.80
2019-05-23T00:32:05.809Z,4.10
2019-05-23T00:33:05.785Z,4.40
2019-05-23T00:34:05.776Z,4.40
2019-05-23T00:35:05.765Z,4.50
2019-05-23T00:36:05.802Z,4.60
2019-05-23T00:37:05.759Z,4.40
2019-05-23T00:38:05.741Z,4.40
2019-05-23T00:39:05.722Z,4.80
2019-05-23T00:40:05.708Z,4.10
2019-05-23T00:41:05.710Z,4.40
2019-05-23T00:42:05.720Z,4.60
2019-05-23T00:43:05.695Z,4.30
2019-05-23T00:44:05.667Z,4.50
2019-05-23T00:45:05.661Z,4.30
2019-05-23T00:46:05.659Z,4.40
2019-05-23T00:47:05.659Z,4.70
2019-05-23T00:48:05.716Z,4.80
2019-05-23T00:49:05.625Z,4.30
2019-05-23T00:50:05.619Z,4.60
2019-05-23T00:51:05.637Z,4.70
2019-05-23T00:52:05.615Z,4.60
2019-05-23T00:53:05.569Z,4.00
2019-05-23T00:54:05.577Z,4.40
2019-05-23T00:55:05.555Z,4.70
2019-05-23T00:56:05.538Z,4.60
2019-05-23T00:57:05.555Z,4.00
2019-05-23T00:58:05.515Z,4.30
2019-05-23T00:59:05.506Z,4.50
2019-05-23T01:00:05.502Z,4.30
2019-05-23T01:01:05.487Z,5.00
2019-05-23T01:02:05.512Z,4.70
2019-05-23T01:03:05.464Z,4.50
2019-05-23T01:04:05.462Z,4.50
2019-05-23T01:05:05.441Z,4.50
2019-05-23T01:06:05.449Z,4.50
2019-05-23T01:07:05.455Z,4.70
2019-05-23T01:08:05.450Z,4.20
2019-05-23T01:09:05.397Z,4.70
2019-05-23T01:10:05.398Z,4.20
2019-05-23T01:11:05.378Z,4.80
2019-05-23T01:12:05.365Z,4.90
2019-05-23T01:13:05.396Z,4.50
2019-05-23T01:14:05.344Z,4.80
2019-05-23T01:15:05.337Z,4.60
2019-05-23T01:16:05.320Z,4.80
2019-05-23T01:17:05.311Z,4.50
2019-05-23T01:18:05.328Z,4.60
2019-05-23T01:19:05.291Z,4.40
2019-05-23T01:20:05.284Z,4.80
2019-05-23T01:21:05.281Z,5.00
2019-05-23T01:22:05.300Z,4.40
2019-05-23T01:23:05.293Z,4.50
2019-05-23T01:24:05.239Z,4.40
2019-05-23T01:25:05.223Z,5.00
2019-05-23T01:26:05.215Z,4.80
2019-05-23T01:27:05.257Z,4.50
2019-05-23T01:28:05.226Z,4.20
2019-05-23T01:29:05.186Z,4.90
2019-05-23T01:30:05.178Z,4.50
2019-05-23T01:31:05.172Z,4.60
2019-05-23T01:32:05.152Z,4.90
2019-05-23T01:33:05.177Z,4.50
2019-05-23T01:34:05.139Z,4.70
2019-05-23T01:35:05.120Z,4.80
2019-05-23T01:36:05.106Z,4.80
2019-05-23T01:37:05.097Z,4.50
2019-05-23T01:38:05.117Z,4.20
2019-05-23T01:39:05.088Z,5.30
2019-05-23T01:40:05.094Z,4.80
2019-05-23T01:41:05.070Z,4.60
2019-05-23T01:42:05.056Z,4.50
2019-05-23T01:43:05.061Z,4.50
2019-05-23T01:44:05.020Z,4.80
2019-05-23T01:45:05.015Z,4.70
2019-05-23T01:46:05.006Z,4.70
2019-05-23T01:47:04.987Z,4.70
2019-05-23T01:48:05.017Z,4.60
2019-05-23T01:49:04.966Z,5.40
2019-05-23T01:50:04.958Z,4.90
2019-05-23T01:51:04.949Z,4.60
2019-05-23T01:52:04.942Z,5.30
2019-05-23T01:53:04.927Z,5.80
2019-05-23T01:54:04.950Z,5.60
2019-05-23T01:55:04.914Z,5.60
2019-05-23T01:56:04.891Z,5.60
2019-05-23T01:57:04.882Z,5.70
2019-05-23T01:58:04.889Z,5.70
2019-05-23T01:59:04.884Z,6.10
2019-05-23T02:00:10.568Z,5.80
2019-05-23T02:01:05.833Z,5.60
2019-05-23T02:02:04.828Z,6.80
2019-05-23T02:03:04.821Z,6.30
2019-05-23T02:04:04.848Z,5.90
2019-05-23T02:05:04.798Z,6.00
2019-05-23T02:06:04.780Z,6.10
2019-05-23T02:07:04.771Z,6.60
2019-05-23T02:08:04.772Z,6.00
2019-05-23T02:09:04.782Z,6.60
2019-05-23T02:10:04.758Z,6.40
2019-05-23T02:11:04.734Z,6.60
2019-05-23T02:12:04.715Z,6.20
2019-05-23T02:13:04.705Z,6.60
2019-05-23T02:14:04.723Z,6.00
2019-05-23T02:15:04.712Z,6.10
2019-05-23T02:16:04.679Z,6.20
2019-05-23T02:17:04.664Z,6.50
2019-05-23T02:18:04.670Z,6.20
2019-05-23T02:19:04.676Z,6.60
2019-05-23T02:20:04.632Z,6.30
2019-05-23T02:21:04.630Z,6.20
2019-05-23T02:22:04.608Z,6.90
2019-05-23T02:23:04.604Z,7.00
2019-05-23T02:24:04.610Z,6.60
2019-05-23T02:25:04.632Z,6.50
2019-05-23T02:26:04.565Z,6.80
2019-05-23T02:27:04.571Z,6.60
2019-05-23T02:28:04.544Z,6.60
2019-05-23T02:29:04.578Z,6.40
2019-05-23T02:30:04.612Z,6.60
2019-05-23T02:31:04.555Z,6.80
2019-05-23T02:32:04.513Z,6.80
2019-05-23T02:33:04.490Z,6.70
2019-05-23T02:34:04.513Z,6.90
2019-05-23T02:35:04.469Z,6.80
2019-05-23T02:36:04.497Z,6.50
2019-05-23T02:37:04.448Z,6.40
2019-05-23T02:38:04.436Z,6.40
2019-05-23T02:39:04.451Z,6.70
2019-05-23T02:40:04.420Z,7.00
2019-05-23T02:41:04.430Z,6.70
2019-05-23T02:42:04.394Z,6.20
2019-05-23T02:43:04.382Z,6.30
2019-05-23T02:44:04.378Z,6.60
2019-05-23T02:45:04.387Z,6.50
2019-05-23T02:46:04.355Z,6.90
2019-05-23T02:47:04.348Z,6.40
2019-05-23T02:48:04.329Z,6.10
2019-05-23T02:49:04.318Z,6.10
2019-05-23T02:50:04.341Z,6.20
2019-05-23T02:51:04.307Z,6.10
2019-05-23T02:52:04.289Z,6.40
2019-05-23T02:53:04.273Z,6.60
2019-05-23T02:54:04.271Z,6.50
2019-05-23T02:55:04.289Z,6.70
2019-05-23T02:56:04.246Z,6.40
2019-05-23T02:57:04.234Z,6.00
2019-05-23T02:58:04.223Z,6.20
2019-05-23T02:59:04.211Z,6.40
2019-05-23T03:00:04.220Z,5.80
2019-05-23T03:01:04.189Z,6.00
2019-05-23T03:02:04.193Z,6.30
2019-05-23T03:03:04.201Z,6.50
2019-05-23T03:04:04.161Z,6.10
2019-05-23T03:05:04.173Z,5.60
2019-05-23T03:06:04.140Z,6.00
2019-05-23T03:07:04.170Z,5.80
2019-05-23T03:08:04.132Z,6.10
2019-05-23T03:09:04.104Z,5.80
2019-05-23T03:10:04.094Z,5.90
2019-05-23T03:11:04.108Z,6.30
2019-05-23T03:12:04.096Z,6.50
2019-05-23T03:13:04.059Z,5.70
2019-05-23T03:14:04.050Z,5.90
2019-05-23T03:15:04.036Z,6.10
2019-05-23T03:16:04.053Z,5.60
2019-05-23T03:17:04.054Z,6.10
2019-05-23T03:18:04.074Z,5.70
2019-05-23T03:19:04.003Z,6.00
2019-05-23T03:20:03.988Z,5.70
2019-05-23T03:21:04.021Z,5.70
2019-05-23T03:22:03.968Z,5.90
2019-05-23T03:23:03.952Z,5.80
2019-05-23T03:24:03.945Z,6.00
2019-05-23T03:25:03.939Z,6.10
2019-05-23T03:26:03.959Z,5.80
2019-05-23T03:27:03.947Z,5.70
2019-05-23T03:28:03.902Z,6.30
2019-05-23T03:29:03.890Z,5.50
2019-05-23T03:30:03.888Z,5.60
2019-05-23T03:31:26.916Z,5.60
2019-05-23T03:32:04.858Z,5.60
2019-05-23T03:33:03.845Z,5.80
2019-05-23T03:34:03.870Z,5.50
2019-05-23T03:35:03.839Z,6.10
2019-05-23T03:36:03.843Z,5.70
2019-05-23T03:37:03.845Z,5.60
2019-05-23T03:38:03.835Z,5.80
2019-05-23T03:39:03.778Z,5.80
2019-05-23T03:40:03.765Z,5.90
2019-05-23T03:41:03.760Z,5.60
2019-05-23T03:42:03.775Z,6.00
2019-05-23T03:43:03.768Z,5.80
2019-05-23T03:44:03.732Z,5.70
2019-05-23T03:45:03.714Z,6.30
2019-05-23T03:46:03.709Z,5.30
2019-05-23T03:47:03.730Z,5.60
2019-05-23T03:48:03.683Z,5.50
2019-05-23T03:49:03.672Z,5.50
2019-05-23T03:50:03.667Z,5.90
2019-05-23T03:51:03.646Z,5.60
2019-05-23T03:52:03.665Z,5.50
2019-05-23T03:53:03.622Z,5.60
2019-05-23T03:54:03.621Z,5.70
2019-05-23T03:55:03.610Z,5.30
2019-05-23T03:56:03.604Z,6.00
2019-05-23T03:57:03.626Z,5.50
2019-05-23T03:58:03.579Z,5.20
2019-05-23T03:59:03.563Z,5.40
2019-05-23T04:00:03.553Z,5.20
2019-05-23T04:01:03.535Z,5.70
2019-05-23T04:02:03.555Z,5.30
2019-05-23T04:03:03.562Z,5.30
2019-05-23T04:04:03.534Z,5.50
2019-05-23T04:05:03.515Z,5.50
2019-05-23T04:06:03.500Z,5.50
2019-05-23T04:07:03.476Z,4.80
2019-05-23T04:08:03.491Z,5.40
2019-05-23T04:09:03.461Z,5.40
2019-05-23T04:10:03.448Z,5.50
2019-05-23T04:11:03.438Z,5.40
2019-05-23T04:12:03.419Z,5.40
2019-05-23T04:13:03.438Z,5.10
2019-05-23T04:14:03.405Z,4.90
2019-05-23T04:15:03.395Z,5.10
2019-05-23T04:16:03.389Z,5.00
2019-05-23T04:17:03.395Z,4.50
2019-05-23T04:18:03.398Z,4.70
2019-05-23T04:19:03.345Z,4.90
2019-05-23T04:20:03.342Z,4.80
2019-05-23T04:21:03.333Z,5.50
2019-05-23T04:22:03.311Z,4.90
2019-05-23T04:23:03.332Z,5.00
2019-05-23T04:24:03.289Z,4.80
2019-05-23T04:25:03.280Z,4.70
2019-05-23T04:26:03.283Z,4.80
2019-05-23T04:27:03.290Z,4.90
2019-05-23T04:28:03.295Z,4.90
2019-05-23T04:29:03.267Z,4.90
2019-05-23T04:30:03.231Z,4.70
2019-05-23T04:31:03.214Z,4.50
2019-05-23T04:32:08.715Z,4.50
2019-05-23T04:33:04.220Z,4.50
2019-05-23T04:34:03.186Z,4.40
2019-05-23T04:35:03.181Z,5.00
2019-05-23T04:36:03.160Z,4.80
2019-05-23T04:37:03.155Z,4.70
2019-05-23T04:38:03.180Z,4.70
2019-05-23T04:39:03.157Z,4.80
2019-05-23T04:40:03.124Z,5.20
2019-05-23T04:41:03.105Z,5.10
2019-05-23T04:42:03.100Z,4.90
2019-05-23T04:43:03.118Z,4.80
2019-05-23T04:44:03.120Z,5.10
2019-05-23T04:45:03.085Z,4.90
2019-05-23T04:46:03.074Z,5.60
2019-05-23T04:47:03.059Z,5.50
2019-05-23T04:48:03.053Z,5.20
2019-05-23T04:49:03.048Z,5.50
2019-05-23T04:50:03.027Z,5.90
2019-05-23T04:51:02.998Z,5.90
2019-05-23T04:52:02.993Z,6.20
2019-05-23T04:53:02.979Z,5.70
2019-05-23T04:54:02.995Z,5.70
2019-05-23T04:55:02.985Z,5.50
2019-05-23T04:56:02.943Z,5.80
2019-05-23T04:57:02.940Z,5.90
2019-05-23T04:58:04.482Z,5.40
2019-05-23T04:59:02.915Z,6.10
2019-05-23T05:00:02.930Z,5.80
2019-05-23T05:01:02.891Z,5.40
2019-05-23T05:02:02.921Z,6.70
2019-05-23T05:03:02.870Z,6.20
2019-05-23T05:04:02.930Z,6.30
2019-05-23T05:05:02.867Z,6.40
2019-05-23T05:06:02.835Z,6.20
2019-05-23T05:07:02.824Z,6.20
2019-05-23T05:08:02.888Z,6.50
2019-05-23T05:09:02.815Z,6.80
2019-05-23T05:10:02.822Z,6.20
2019-05-23T05:11:02.793Z,6.70
2019-05-23T05:12:02.773Z,6.70
2019-05-23T05:13:02.765Z,6.20
2019-05-23T05:14:02.752Z,6.60
2019-05-23T05:15:02.766Z,7.10
2019-05-23T05:16:02.735Z,6.80
2019-05-23T05:17:02.727Z,7.20
2019-05-23T05:18:02.721Z,7.80
2019-05-23T05:19:02.725Z,7.70
2019-05-23T05:20:02.748Z,6.80
2019-05-23T05:21:02.677Z,7.60
2019-05-23T05:22:02.669Z,7.60
2019-05-23T05:23:02.661Z,7.00
2019-05-23T05:24:02.667Z,7.30
2019-05-23T05:25:02.655Z,7.80
2019-05-23T05:26:02.628Z,7.30
2019-05-23T05:27:02.622Z,6.70
2019-05-23T05:28:02.598Z,6.90
2019-05-23T05:29:02.619Z,7.20
2019-05-23T05:30:02.617Z,7.40
2019-05-23T05:31:02.600Z,7.90
2019-05-23T05:32:04.013Z,7.10
2019-05-23T05:33:02.544Z,7.10
2019-05-23T05:34:02.533Z,7.20
2019-05-23T05:35:02.568Z,7.40
2019-05-23T05:36:02.514Z,7.00
2019-05-23T05:37:02.507Z,7.00
2019-05-23T05:38:02.490Z,7.10
2019-05-23T05:39:02.484Z,7.20
2019-05-23T05:40:02.493Z,6.50
2019-05-23T05:41:02.505Z,7.00
2019-05-23T05:42:02.454Z,6.70
2019-05-23T05:43:02.440Z,6.60
2019-05-23T05:44:02.425Z,7.00
2019-05-23T05:45:02.454Z,6.60
2019-05-23T05:46:02.438Z,6.40
2019-05-23T05:47:02.398Z,6.40
2019-05-23T05:48:02.389Z,5.70
2019-05-23T05:49:02.537Z,6.10
2019-05-23T05:50:02.369Z,6.00
2019-05-23T05:51:02.381Z,5.50
2019-05-23T05:52:02.340Z,5.80
2019-05-23T05:53:02.327Z,5.40
2019-05-23T05:54:02.350Z,5.70
2019-05-23T05:55:02.307Z,6.10
2019-05-23T05:56:02.335Z,5.70
2019-05-23T05:57:02.290Z,5.90
2019-05-23T05:58:02.298Z,5.10
2019-05-23T05:59:02.270Z,5.60
2019-05-23T06:00:02.261Z,5.60
2019-05-23T06:01:02.290Z,5.30
2019-05-23T06:02:02.240Z,5.00
2019-05-23T06:03:05.355Z,5.40
2019-05-23T06:04:02.208Z,4.90
2019-05-23T06:05:02.211Z,5.20
2019-05-23T06:06:02.217Z,5.40
2019-05-23T06:07:02.240Z,4.90
2019-05-23T06:08:02.167Z,5.20
2019-05-23T06:09:02.157Z,4.70
2019-05-23T06:10:02.198Z,5.10
2019-05-23T06:11:02.171Z,5.20
2019-05-23T06:12:02.129Z,5.20
2019-05-23T06:13:02.118Z,5.00
2019-05-23T06:14:02.103Z,4.90
2019-05-23T06:15:03.558Z,5.10
2019-05-23T06:16:02.103Z,4.60
2019-05-23T06:17:02.094Z,4.70
2019-05-23T06:18:02.133Z,4.90
2019-05-23T06:19:02.049Z,4.80
2019-05-23T06:20:02.115Z,4.50
2019-05-23T06:21:02.030Z,4.60
2019-05-23T06:22:02.049Z,4.60
2019-05-23T06:23:02.007Z,4.70
2019-05-23T06:24:01.994Z,4.60
2019-05-23T06:25:02.482Z,4.60
2019-05-23T06:26:01.975Z,4.50
2019-05-23T06:27:01.986Z,4.50
2019-05-23T06:28:01.954Z,4.50
2019-05-23T06:29:01.942Z,4.60
2019-05-23T06:30:01.993Z,4.70
2019-05-23T06:31:01.918Z,4.20
2019-05-23T06:32:01.936Z,4.50
2019-05-23T06:33:01.907Z,4.40
2019-05-23T06:34:01.887Z,4.60
2019-05-23T06:35:01.910Z,4.60
2019-05-23T06:36:02.009Z,4.70
2019-05-23T06:37:01.882Z,4.40
2019-05-23T06:38:01.874Z,4.40
2019-05-23T06:39:01.833Z,4.20
2019-05-23T06:40:01.999Z,4.50
2019-05-23T06:41:01.813Z,4.60
2019-05-23T06:42:01.799Z,4.70
2019-05-23T06:43:01.823Z,4.70
2019-05-23T06:44:01.785Z,4.20
2019-05-23T06:45:01.796Z,4.40
2019-05-23T06:46:01.757Z,4.60
2019-05-23T06:47:01.784Z,4.00
2019-05-23T06:48:01.766Z,4.10
2019-05-23T06:49:01.804Z,4.10
2019-05-23T06:50:01.842Z,4.40
2019-05-23T06:51:01.722Z,4.20
2019-05-23T06:52:01.691Z,4.10
2019-05-23T06:53:02.233Z,4.50
2019-05-23T06:54:01.671Z,4.70
2019-05-23T06:55:01.705Z,4.20
2019-05-23T06:56:01.652Z,4.40
2019-05-23T06:57:01.655Z,4.10
2019-05-23T06:58:01.657Z,4.70
2019-05-23T06:59:01.642Z,4.10
2019-05-23T07:00:01.605Z,4.20
2019-05-23T07:01:01.606Z,4.50
2019-05-23T07:02:01.590Z,4.20
2019-05-23T07:03:01.870Z,4.30
2019-05-23T07:04:01.567Z,4.20
2019-05-23T07:05:01.564Z,4.40
2019-05-23T07:06:01.544Z,4.00
2019-05-23T07:07:01.529Z,4.10
2019-05-23T07:08:01.559Z,4.70
2019-05-23T07:09:01.518Z,4.10
2019-05-23T07:10:01.859Z,3.80
2019-05-23T07:11:01.491Z,4.00
2019-05-23T07:12:01.481Z,4.10
2019-05-23T07:13:01.496Z,4.10
2019-05-23T07:14:01.459Z,4.40
2019-05-23T07:15:02.043Z,4.10
2019-05-23T07:16:01.448Z,3.90
2019-05-23T07:17:01.428Z,4.00
2019-05-23T07:18:01.422Z,3.90
2019-05-23T07:19:01.438Z,4.30
2019-05-23T07:20:01.391Z,4.10
2019-05-23T07:21:01.388Z,4.10
2019-05-23T07:22:01.371Z,4.10
2019-05-23T07:23:01.375Z,3.80
2019-05-23T07:24:01.381Z,3.70
2019-05-23T07:25:01.334Z,3.90
2019-05-23T07:26:01.333Z,4.00
2019-05-23T07:27:01.350Z,3.70
2019-05-23T07:28:01.405Z,4.30
2019-05-23T07:29:01.320Z,4.00
2019-05-23T07:30:01.374Z,4.00
2019-05-23T07:31:01.279Z,4.20
2019-05-23T07:32:01.271Z,4.20
2019-05-23T07:33:01.255Z,4.30
2019-05-23T07:34:02.611Z,3.90
2019-05-23T07:35:01.255Z,3.90
2019-05-23T07:36:01.216Z,3.80
2019-05-23T07:37:01.217Z,4.00
2019-05-23T07:38:01.200Z,3.90
2019-05-23T07:39:01.372Z,4.00
2019-05-23T07:40:01.187Z,4.00
2019-05-23T07:41:01.188Z,3.80
2019-05-23T07:42:01.154Z,3.80
2019-05-23T07:43:01.141Z,4.10
2019-05-23T07:44:01.175Z,4.00
2019-05-23T07:45:01.210Z,4.00
2019-05-23T07:46:01.112Z,3.70
2019-05-23T07:47:01.115Z,3.50
2019-05-23T07:48:01.162Z,3.50
2019-05-23T07:49:01.078Z,3.40
2019-05-23T07:50:02.043Z,3.80
2019-05-23T07:51:01.075Z,3.90
2019-05-23T07:52:01.043Z,3.50
2019-05-23T07:53:01.034Z,3.50
2019-05-23T07:54:01.025Z,3.60
2019-05-23T07:55:01.054Z,3.50
2019-05-23T07:56:01.020Z,3.30
2019-05-23T07:57:00.999Z,3.80
2019-05-23T07:58:00.996Z,3.70
2019-05-23T07:59:00.966Z,3.70
2019-05-23T08:00:00.985Z,3.40
2019-05-23T08:01:00.953Z,3.80
2019-05-23T08:02:00.942Z,3.70
2019-05-23T08:03:00.943Z,3.90
2019-05-23T08:04:17.983Z,3.70
2019-05-23T08:05:01.984Z,4.20
2019-05-23T08:06:01.062Z,3.60
2019-05-23T08:07:00.880Z,3.90
2019-05-23T08:08:00.920Z,3.40
2019-05-23T08:09:00.865Z,3.30
2019-05-23T08:10:00.854Z,3.70
2019-05-23T08:11:00.870Z,3.80
2019-05-23T08:12:00.831Z,3.40
2019-05-23T08:13:00.823Z,3.10
2019-05-23T08:14:00.818Z,3.30
2019-05-23T08:15:00.799Z,3.70
2019-05-23T08:16:00.810Z,3.60
2019-05-23T08:17:00.784Z,3.40
2019-05-23T08:18:00.778Z,3.60
2019-05-23T08:19:00.760Z,2.90
2019-05-23T08:20:00.769Z,3.70
2019-05-23T08:21:00.773Z,3.40
2019-05-23T08:22:00.725Z,3.30
2019-05-23T08:23:00.713Z,3.50
2019-05-23T08:24:00.705Z,3.50
2019-05-23T08:25:00.701Z,3.40
2019-05-23T08:26:00.712Z,3.20
2019-05-23T08:27:00.716Z,3.30
2019-05-23T08:28:00.655Z,3.10
2019-05-23T08:29:24.142Z,2.80
2019-05-23T08:30:02.346Z,3.00
2019-05-23T08:31:00.645Z,3.20
2019-05-23T08:32:00.624Z,3.30
2019-05-23T08:33:00.605Z,3.30
2019-05-23T08:34:00.594Z,3.10
2019-05-23T08:35:00.601Z,3.10
2019-05-23T08:36:00.603Z,3.00
2019-05-23T08:37:00.558Z,3.40
2019-05-23T08:38:00.555Z,3.30
2019-05-23T08:39:00.541Z,3.00
2019-05-23T08:40:00.528Z,3.50
2019-05-23T08:41:00.549Z,3.30
2019-05-23T08:42:00.512Z,3.10
2019-05-23T08:43:00.496Z,3.10
2019-05-23T08:44:00.490Z,3.10
2019-05-23T08:45:00.471Z,2.80
2019-05-23T08:46:00.500Z,2.70
2019-05-23T08:47:00.452Z,2.70
2019-05-23T08:48:00.445Z,3.20
2019-05-23T08:49:00.430Z,2.90
2019-05-23T08:50:00.431Z,3.10
2019-05-23T08:51:00.434Z,2.70
2019-05-23T08:52:00.397Z,3.10
2019-05-23T08:53:00.391Z,2.90
2019-05-23T08:54:00.375Z,2.80
2019-05-23T08:55:00.368Z,2.90
2019-05-23T08:56:00.398Z,2.70
2019-05-23T08:57:00.434Z,2.90
2019-05-23T08:58:00.334Z,2.70
2019-05-23T08:59:00.322Z,3.00
2019-05-23T09:00:00.311Z,2.80
2019-05-23T09:01:00.333Z,2.90
2019-05-23T09:02:00.289Z,2.70
2019-05-23T09:03:00.286Z,2.90
2019-05-23T09:04:00.270Z,3.00
2019-05-23T09:05:05.318Z,2.80
2019-05-23T09:06:01.274Z,2.60
2019-05-23T09:07:00.275Z,2.40
2019-05-23T09:08:00.225Z,2.60
2019-05-23T09:09:00.221Z,2.70
2019-05-23T09:10:00.230Z,2.60
2019-05-23T09:11:00.223Z,2.90
2019-05-23T09:12:00.209Z,2.50
2019-05-23T09:13:00.170Z,2.80
2019-05-23T09:14:00.164Z,2.30
2019-05-23T09:15:00.159Z,2.60
2019-05-23T09:16:00.143Z,2.40
2019-05-23T09:17:00.152Z,2.60
2019-05-23T09:18:00.122Z,2.70
2019-05-23T09:19:00.108Z,2.80
2019-05-23T09:20:00.127Z,2.30
2019-05-23T09:21:00.088Z,2.80
2019-05-23T09:22:00.109Z,2.50
2019-05-23T09:23:00.064Z,2.60
2019-05-23T09:24:00.054Z,2.30
2019-05-23T09:25:00.041Z,2.60
2019-05-23T09:26:00.048Z,2.40
2019-05-23T09:27:00.050Z,2.20
2019-05-23T09:28:00.043Z,2.50
2019-05-23T09:29:00.005Z,2.40
2019-05-23T09:29:59.992Z,2.60
2019-05-23T09:30:59.980Z,2.40
2019-05-23T09:31:59.994Z,2.70
2019-05-23T09:32:59.953Z,2.40
2019-05-23T09:33:59.947Z,2.70
2019-05-23T09:34:59.942Z,2.50
2019-05-23T09:35:59.933Z,2.30
2019-05-23T09:37:00.633Z,2.50
2019-05-23T09:37:59.908Z,2.30
2019-05-23T09:38:59.898Z,2.50
2019-05-23T09:39:59.883Z,2.20
2019-05-23T09:40:59.870Z,2.40
2019-05-23T09:41:59.866Z,2.30
2019-05-23T09:42:59.872Z,2.90
2019-05-23T09:43:59.836Z,2.60
2019-05-23T09:44:59.937Z,2.00
2019-05-23T09:45:59.833Z,2.40
2019-05-23T09:46:59.808Z,2.20
2019-05-23T09:47:59.836Z,2.40
2019-05-23T09:48:59.787Z,2.50
2019-05-23T09:49:59.769Z,2.30
2019-05-23T09:50:59.761Z,2.10
2019-05-23T09:52:01.332Z,2.30
2019-05-23T09:52:59.767Z,2.50
2019-05-23T09:53:59.730Z,2.40
2019-05-23T09:54:59.716Z,2.30
2019-05-23T09:55:59.707Z,2.30
2019-05-23T09:56:59.697Z,2.40
2019-05-23T09:57:59.709Z,2.40
2019-05-23T09:58:59.677Z,2.20
2019-05-23T09:59:59.673Z,2.20
2019-05-23T10:00:59.661Z,2.40
2019-05-23T10:01:59.640Z,2.20
2019-05-23T10:02:59.689Z,2.30
2019-05-23T10:03:59.621Z,2.30
2019-05-23T10:04:59.609Z,2.30
2019-05-23T10:05:59.614Z,2.50
2019-05-23T10:06:59.588Z,2.40
2019-05-23T10:07:59.576Z,2.30
2019-05-23T10:08:59.597Z,2.60
2019-05-23T10:09:59.566Z,2.20
2019-05-23T10:10:59.594Z,2.30
2019-05-23T10:11:59.545Z,2.60
2019-05-23T10:12:59.522Z,2.20
2019-05-23T10:13:59.541Z,2.20
2019-05-23T10:14:59.502Z,2.30
2019-05-23T10:15:59.494Z,2.40
2019-05-23T10:16:59.484Z,2.20
2019-05-23T10:18:00.860Z,2.30
2019-05-23T10:18:59.493Z,2.10
2019-05-23T10:19:59.448Z,2.20
2019-05-23T10:20:59.436Z,2.40
2019-05-23T10:21:59.431Z,2.30
2019-05-23T10:22:59.417Z,2.30
2019-05-23T10:23:59.447Z,2.50
2019-05-23T10:24:59.414Z,2.50
2019-05-23T10:25:59.386Z,2.30
2019-05-23T10:26:59.380Z,2.10
2019-05-23T10:27:59.361Z,2.40
2019-05-23T10:28:59.498Z,2.30
2019-05-23T10:29:59.339Z,2.40
2019-05-23T10:30:59.337Z,2.20
2019-05-23T10:31:59.329Z,2.30
2019-05-23T10:32:59.307Z,2.10
2019-05-23T10:33:59.328Z,2.10
2019-05-23T10:34:59.291Z,2.10
2019-05-23T10:36:01.127Z,2.10
2019-05-23T10:36:59.275Z,1.90
2019-05-23T10:37:59.264Z,2.10
2019-05-23T10:38:59.247Z,1.80
2019-05-23T10:39:59.266Z,2.10
2019-05-23T10:40:59.229Z,2.10
2019-05-23T10:41:59.222Z,2.00
2019-05-23T10:42:59.206Z,2.40
2019-05-23T10:43:59.231Z,2.00
2019-05-23T10:44:59.180Z,2.00
2019-05-23T10:45:59.175Z,1.90
2019-05-23T10:46:59.161Z,2.00
2019-05-23T10:47:59.155Z,1.90
2019-05-23T10:48:59.172Z,2.20
2019-05-23T10:49:59.290Z,1.80
2019-05-23T10:50:59.113Z,1.70
2019-05-23T10:51:59.116Z,1.90
2019-05-23T10:52:59.098Z,1.80
2019-05-23T10:53:59.130Z,1.90
2019-05-23T10:54:59.132Z,1.50
2019-05-23T10:55:59.072Z,2.00
2019-05-23T10:56:59.056Z,1.90
2019-05-23T10:57:59.046Z,1.90
2019-05-23T10:58:59.039Z,1.80
2019-05-23T10:59:59.045Z,1.70
2019-05-23T11:00:59.014Z,1.80
2019-05-23T11:01:59.009Z,1.90
2019-05-23T11:02:59.007Z,1.60
2019-05-23T11:03:58.978Z,1.90
2019-05-23T11:04:59.015Z,1.90
2019-05-23T11:06:14.488Z,1.90
2019-05-23T11:06:59.945Z,1.70
2019-05-23T11:07:58.937Z,1.80
2019-05-23T11:08:58.936Z,2.00
2019-05-23T11:09:58.942Z,1.90
2019-05-23T11:10:58.901Z,1.60
2019-05-23T11:11:58.898Z,1.70
2019-05-23T11:12:58.881Z,1.60
2019-05-23T11:13:58.879Z,1.70
2019-05-23T11:14:58.888Z,1.70
2019-05-23T11:15:58.880Z,1.70
2019-05-23T11:16:58.834Z,1.70
2019-05-23T11:17:58.835Z,1.50
2019-05-23T11:18:58.828Z,1.50
2019-05-23T11:19:58.838Z,1.50
2019-05-23T11:20:58.832Z,1.50
2019-05-23T11:21:58.803Z,1.70
2019-05-23T11:22:58.774Z,1.70
2019-05-23T11:23:58.765Z,1.40
2019-05-23T11:24:58.814Z,1.60
2019-05-23T11:26:01.395Z,1.60
2019-05-23T11:26:58.730Z,1.50
2019-05-23T11:27:58.841Z,1.60
2019-05-23T11:28:58.706Z,1.50
2019-05-23T11:29:58.708Z,1.90
2019-05-23T11:30:58.744Z,1.40
2019-05-23T11:31:58.676Z,1.60
2019-05-23T11:32:58.670Z,1.50
2019-05-23T11:33:58.655Z,1.60
2019-05-23T11:34:58.645Z,1.60
2019-05-23T11:35:58.666Z,1.80
2019-05-23T11:36:58.621Z,1.70
2019-05-23T11:37:58.610Z,1.60
2019-05-23T11:38:58.603Z,1.60
2019-05-23T11:40:00.549Z,1.80
2019-05-23T11:40:58.609Z,1.90
2019-05-23T11:41:58.575Z,1.80
2019-05-23T11:42:58.599Z,1.60
2019-05-23T11:43:58.571Z,1.80
2019-05-23T11:44:58.537Z,1.80
2019-05-23T11:45:58.540Z,2.00
2019-05-23T11:46:58.562Z,1.70
2019-05-23T11:47:58.513Z,1.90
2019-05-23T11:48:58.491Z,2.10
2019-05-23T11:49:58.487Z,1.90
2019-05-23T11:50:58.480Z,1.70
2019-05-23T11:51:58.492Z,1.90
2019-05-23T11:52:58.467Z,2.10
2019-05-23T11:54:07.712Z,1.60
2019-05-23T11:54:59.428Z,1.80
2019-05-23T11:55:58.433Z,1.50
2019-05-23T11:56:58.449Z,1.90
2019-05-23T11:57:58.405Z,1.80
2019-05-23T11:59:01.551Z,1.70
2019-05-23T11:59:58.372Z,1.80
2019-05-23T12:00:58.419Z,2.20
2019-05-23T12:01:58.388Z,1.90
2019-05-23T12:02:58.345Z,1.70
2019-05-23T12:03:58.358Z,1.80
2019-05-23T12:04:58.344Z,1.80
2019-05-23T12:05:58.312Z,1.70
2019-05-23T12:06:58.327Z,1.80
2019-05-23T12:07:58.290Z,1.60
2019-05-23T12:08:58.289Z,1.70
2019-05-23T12:09:58.306Z,1.90
2019-05-23T12:10:58.263Z,1.70
2019-05-23T12:11:58.271Z,1.90
2019-05-23T12:12:58.235Z,1.90
2019-05-23T12:13:58.233Z,1.90
2019-05-23T12:14:58.223Z,2.00
2019-05-23T12:15:58.209Z,1.60
2019-05-23T12:16:58.221Z,2.10
2019-05-23T12:17:58.182Z,1.80
2019-05-23T12:18:58.181Z,1.90
2019-05-23T12:19:58.270Z,2.00
2019-05-23T12:20:59.737Z,2.20
2019-05-23T12:21:58.192Z,1.80
2019-05-23T12:22:58.159Z,2.00
2019-05-23T12:23:58.124Z,1.90
2019-05-23T12:24:58.120Z,1.90
2019-05-23T12:25:58.097Z,2.00
2019-05-23T12:26:58.091Z,2.10
2019-05-23T12:27:58.112Z,1.80
2019-05-23T12:28:58.073Z,1.80
2019-05-23T12:29:58.055Z,1.90
2019-05-23T12:30:58.046Z,2.00
2019-05-23T12:31:58.037Z,2.00
2019-05-23T12:32:58.059Z,1.60
2019-05-23T12:33:58.020Z,2.00
2019-05-23T12:35:10.598Z,1.90
2019-05-23T12:35:59.005Z,2.00
2019-05-23T12:37:17.137Z,2.00
2019-05-23T12:38:02.205Z,1.80
2019-05-23T12:38:57.966Z,2.00
2019-05-23T12:39:57.958Z,1.90
2019-05-23T12:40:57.943Z,2.00
2019-05-23T12:41:57.932Z,2.00
2019-05-23T12:42:57.948Z,1.90
2019-05-23T12:43:57.907Z,2.20
2019-05-23T12:44:57.903Z,2.00
2019-05-23T12:45:57.887Z,2.10
2019-05-23T12:46:57.895Z,1.90
2019-05-23T12:47:57.919Z,2.10
2019-05-23T12:48:57.862Z,2.00
2019-05-23T12:49:57.847Z,2.20
2019-05-23T12:50:57.843Z,1.80
2019-05-23T12:51:57.821Z,2.00
2019-05-23T12:52:57.809Z,2.10
2019-05-23T12:53:57.848Z,2.20
2019-05-23T12:54:57.795Z,2.00
2019-05-23T12:55:57.788Z,2.00
2019-05-23T12:56:57.764Z,2.20
2019-05-23T12:57:57.786Z,2.30
2019-05-23T12:58:57.776Z,1.90
2019-05-23T12:59:57.735Z,2.00
2019-05-23T13:00:57.729Z,2.00
2019-05-23T13:01:57.741Z,2.00
2019-05-23T13:02:57.735Z,1.90
2019-05-23T13:03:57.727Z,2.00
2019-05-23T13:04:57.688Z,1.90
2019-05-23T13:05:57.675Z,2.00
2019-05-23T13:06:57.664Z,2.00
2019-05-23T13:07:57.672Z,2.10
2019-05-23T13:08:57.672Z,2.00
2019-05-23T13:09:57.633Z,2.00
2019-05-23T13:10:57.615Z,2.20
2019-05-23T13:11:57.618Z,1.90
2019-05-23T13:12:57.600Z,1.90
2019-05-23T13:13:57.646Z,2.10
2019-05-23T13:14:58.915Z,2.10
2019-05-23T13:15:57.567Z,1.90
2019-05-23T13:17:00.704Z,2.20
2019-05-23T13:17:57.544Z,2.10